x

Nfb - Northwest Florida Bay, Fl (nfbf1) Weather Station

9:54am - Sat 27th Dec 2014 All times are CST. -5 hours from GMT.

  • Wind
    8mph, 9mph gusts
  • Air Temp 73°f
  • Sea Pressure 1024mb
  • Nfb - Northwest Florida Bay, Fl
  • Nfb - Northwest Florida Bay, Fl

More Historic Weather Station data

Upgrade to MSW Pro to gain access to the past 30 days of data for over 8000 Wavebouys and Weather Stations around the globe.

Join Pro

Comparision Forecast

View Surf forecast
   
Sat 12/27 9:54am 8 9 mph 1024mb 73f
9:48am 9 10 mph 1024mb 73f
9:42am 9 10 mph 1024mb 73f
9:36am 10 11 mph 1023.9mb 73f
8:54am 9 11 mph 1023.6mb 72f
8:48am 10 11 mph 1023.4mb 72f
8:42am 9 11 mph 1023.3mb 72f
8:36am 10 11 mph 1023.2mb 71f
7:54am 10 11 mph 1022.6mb 71f
7:48am 10 11 mph 1022.6mb 71f
7:42am 10 11 mph 1022.5mb 71f
7:36am 10 11 mph 1022.4mb 71f
6:54am 9 10 mph 1021.9mb 71f
6:48am 9 11 mph 1021.7mb 71f
6:42am 10 11 mph 1021.7mb 71f
6:36am 10 11 mph 1021.6mb 71f
5:54am 7 8 mph 1021.1mb 71f
5:48am 8 9 mph 1021.1mb 71f
5:42am 9
mph
1021mb 71f
5:36am 8 9 mph 1021mb 71f
4:54am 9 10 mph 1020.8mb 71f
4:48am 9 11 mph 1020.7mb 71f
4:42am 9 10 mph 1020.7mb 71f
4:36am 10 11 mph 1020.7mb 71f
3:54am 8 10 mph 1020.7mb 72f
3:48am 8 9 mph 1020.6mb 72f
3:42am 9 10 mph 1020.6mb 72f
3:36am 9 10 mph 1020.6mb 72f
2:54am 8 9 mph 1020.7mb 72f
2:48am 8 9 mph 1020.7mb 72f
2:42am 8 9 mph 1020.7mb 72f
2:36am 8 9 mph 1020.7mb 72f
1:54am 7 9 mph 1021mb 72f
1:48am 7 8 mph 1021mb 72f
1:42am 8 9 mph 1021mb 72f
1:36am 8 9 mph 1021mb 72f
12:54am 10 11 mph 1021.1mb 72f
12:48am 9 10 mph 1021.2mb 72f
12:42am 10 13 mph 1021.2mb 72f
12:36am 10 13 mph 1021.2mb 72f
Fri 12/26 11:54pm 10 13 mph 1021.6mb 72f
11:48pm 11 13 mph 1021.6mb 72f
11:42pm 11 13 mph 1021.6mb 72f
11:36pm 13 14 mph 1021.6mb 73f
10:54pm 10 13 mph 1022.1mb 73f
10:48pm 10 11 mph 1022.1mb 73f
10:42pm 11 13 mph 1022.1mb 73f
10:36pm 11 13 mph 1022.1mb 73f
9:54pm 10 11 mph 1022.1mb 74f
9:48pm 10 11 mph 1022mb 74f
9:42pm 10 13 mph 1022mb 74f
9:36pm 10 11 mph 1021.9mb 74f
8:54pm 9 10 mph 1021.7mb 74f
8:48pm 9 10 mph 1021.6mb 74f
8:42pm 10 11 mph 1021.6mb 74f
8:36pm 9 11 mph 1021.6mb 74f
7:54pm 6
mph
1021.4mb 75f
7:48pm 6
mph
1021.3mb 75f
7:42pm 6
mph
1021.3mb 75f
7:36pm 6
mph
1021.3mb 75f
7:30pm 6
mph
1021.4mb 75f
7:24pm 6
mph
1021.3mb 75f
7:18pm 6
mph
1021.3mb 75f
7:12pm 6
mph
1021.3mb 75f
7:06pm 6
mph
1021.2mb 75f
7:00pm 5 6 mph 1021.3mb 75f
6:54pm 5
mph
1021.2mb 75f
6:48pm 5 6 mph 1021.1mb 75f
6:42pm 6
mph
1021mb 75f
6:36pm 5 6 mph 1021.1mb 75f
6:30pm 5 6 mph 1021mb 75f
6:24pm 6
mph
1021mb 75f
6:18pm 6
mph
1021mb 76f
6:12pm 6
mph
1020.8mb 76f
6:06pm 6
mph
1020.9mb 75f
6:00pm 5 6 mph 1020.8mb 75f
5:54pm 5 6 mph 1020.7mb 75f
5:48pm 5
mph
1020.7mb 75f
5:42pm 6
mph
1020.6mb 75f
5:36pm 6 7 mph 1020.5mb 75f
4:54pm 6 7 mph 1020.1mb 75f
4:48pm 6
mph
1020mb 75f
4:42pm 5 6 mph 1020mb 75f
4:36pm 5 6 mph 1019.9mb 75f
3:54pm 6 7 mph 1019.7mb 75f
3:48pm 6 7 mph 1019.6mb 75f
3:42pm 6 7 mph 1019.5mb 75f
3:36pm 6 7 mph 1019.5mb 75f
2:54pm 7
mph
1019.9mb 75f
2:48pm 7
mph
1019.9mb 75f
2:42pm 6 7 mph 1019.7mb 75f
2:36pm 6 8 mph 1019.7mb 75f
1:54pm 6 7 mph 1020mb 74f
1:48pm 7
mph
1020.1mb 74f
1:42pm 7 8 mph 1020.2mb 74f
1:36pm 7 8 mph 1020.2mb 74f
12:54pm 8 10 mph 1020.9mb 73f
12:48pm 8 9 mph 1021mb 73f
12:42pm 9 11 mph 1021.1mb 73f
12:36pm 11 13 mph 1021.2mb 73f
11:54am 10 13 mph 1021.6mb 73f
11:48am 10 13 mph 1021.8mb 73f
11:42am 10 13 mph 1021.9mb 73f
11:36am 11 14 mph 1021.8mb 73f
10:54am 14 15 mph 1022.2mb 72f
10:48am 13 14 mph 1022.2mb 72f
10:42am 13 14 mph 1022.1mb 72f
10:36am 13 15 mph 1022.1mb 72f
9:54am 14 17 mph 1022.2mb 72f
9:48am 14 17 mph 1022.1mb 71f
9:42am 15 17 mph 1022mb 71f
9:36am 15 17 mph 1022.1mb 71f
8:54am 16 18 mph 1021.5mb 70f
8:48am 16 17 mph 1021.4mb 69f
8:42am 15 17 mph 1021.3mb 69f
8:36am 16 17 mph 1021.3mb 69f
7:54am 16 18 mph 1021mb 68f
7:48am 15 16 mph 1020.9mb 68f
7:42am 15 17 mph 1020.8mb 67f
7:36am 15 16 mph 1020.8mb 68f
6:54am 14 16 mph 1020.5mb 69f
6:48am 14 16 mph 1020.5mb 69f
6:42am 13 15 mph 1020.6mb 69f
6:36am 13 15 mph 1020.5mb 69f
5:54am 14 16 mph 1020.2mb 69f
5:48am 14 17 mph 1020.2mb 69f
5:42am 15 16 mph 1020.1mb 69f
5:36am 15 16 mph 1020mb 69f
5:30am 13 15 mph 1019.9mb 69f
5:24am 14 15 mph 1020mb 68f
5:18am 14 16 mph 1020.1mb 68f
5:12am 14 16 mph 1020mb 69f
5:06am 14 16 mph 1020.1mb 69f
5:00am 13 15 mph 1020mb 70f
4:54am 11 14 mph 1020.1mb 71f
4:48am 11 14 mph 1020mb 71f
4:42am 11 14 mph 1019.9mb 71f
4:36am 11 13 mph 1019.9mb 71f
3:54am 11 14 mph 1020.2mb 70f
3:48am 13 15 mph 1020.2mb 70f
3:42am 13 14 mph 1020.3mb 70f
3:36am 11 14 mph 1020.2mb 70f
2:54am 9 11 mph 1020.7mb 70f
2:48am 10 13 mph 1020.7mb 70f
2:42am 8 10 mph 1020.7mb 70f
2:36am 8 9 mph 1020.6mb 70f
1:54am 9 11 mph 1021mb 71f
1:48am 9 11 mph 1021mb 71f
1:42am 9 11 mph 1020.9mb 71f
1:36am 9 11 mph 1020.8mb 71f
12:54am 13 15 mph 1020.7mb 71f
12:48am 13 15 mph 1020.8mb 71f
12:42am 13 15 mph 1020.9mb 71f
12:36am 11 13 mph 1020.9mb 71f
Thu 12/25 11:54pm 13 16 mph 1021.2mb 72f
11:48pm 13 15 mph 1021.2mb 72f
11:42pm 14 15 mph 1021.2mb 72f
11:36pm 13 14 mph 1021.2mb 72f
10:54pm 14 15 mph 1021.5mb 72f
10:48pm 15 17 mph 1021.5mb 72f
10:42pm 14 16 mph 1021.5mb 72f
10:36pm 14 15 mph 1021.7mb 71f
10:30pm 14 16 mph 1021.8mb 71f
10:24pm 14 16 mph 1021.9mb 71f
10:18pm 15 17 mph 1021.9mb 71f
10:12pm 15 20 mph 1021.8mb 71f
10:06pm 15 17 mph 1021.8mb 71f
10:00pm 15 18 mph 1021.8mb 71f
9:54pm 16 17 mph 1021.8mb 71f
9:48pm 15 18 mph 1021.8mb 71f
9:42pm 15 18 mph 1021.8mb 71f
9:36pm 15 18 mph 1021.8mb 71f
9:30pm 15 17 mph 1021.8mb 71f
9:24pm 16 18 mph 1021.8mb 71f
9:18pm 16 18 mph 1021.8mb 71f
9:12pm 14 17 mph 1021.8mb 71f
9:06pm 15 17 mph 1021.8mb 71f
9:00pm 15 17 mph 1021.8mb 71f
8:54pm 15 17 mph 1021.7mb 71f
8:48pm 15 17 mph 1021.7mb 71f
8:42pm 15 18 mph 1021.7mb 71f
8:36pm 16 21 mph 1021.7mb 71f
8:30pm 17 21 mph 1021.6mb 71f
8:24pm 16 20 mph 1021.6mb 71f
8:18pm 16 20 mph 1021.5mb 71f
8:12pm 17 21 mph 1021.5mb 71f
8:06pm 18 22 mph 1021.5mb 71f
8:00pm 17 21 mph 1021.6mb 71f
7:54pm 17 22 mph 1021.6mb 71f
7:48pm 17 20 mph 1021.5mb 71f
7:42pm 16 20 mph 1021.3mb 71f
7:36pm 18 21 mph 1021.2mb 71f
6:54pm 17 21 mph 1021mb 71f
6:48pm 18 22 mph 1021mb 71f
6:42pm 20 23 mph 1020.9mb 71f
6:36pm 21 24 mph 1020.9mb 71f
5:54pm 21 25 mph 1020.6mb 72f
5:48pm 20 23 mph 1020.7mb 72f
5:42pm 20 24 mph 1020.6mb 72f
5:36pm 20 25 mph 1020.6mb 72f
4:54pm 18 22 mph 1020mb 72f
4:48pm 18 21 mph 1019.9mb 72f
4:42pm 18 23 mph 1019.9mb 72f
4:36pm 18 22 mph 1019.8mb 73f
3:54pm 15 18 mph 1019.4mb 74f
3:48pm 14 18 mph 1019.4mb 74f
3:42pm 15 17 mph 1019.4mb 74f
3:36pm 15 16 mph 1019.4mb 74f
2:54pm 10 14 mph 1019.7mb 74f
2:48pm 14 16 mph 1019.6mb 74f
2:42pm 11 15 mph 1019.5mb 74f
2:36pm 11 15 mph 1019.5mb 74f
1:54pm 10 14 mph 1019.5mb 74f
1:48pm 11 14 mph 1019.6mb 74f
1:42pm 10 14 mph 1019.5mb 74f
1:36pm 10 13 mph 1019.7mb 74f
12:54pm 10 14 mph 1020mb 73f
12:48pm 13 15 mph 1020.1mb 73f
12:42pm 13 15 mph 1020.2mb 73f
12:36pm 13 15 mph 1020.2mb 73f
11:54am 16 18 mph 1020.6mb 71f
11:48am 14 17 mph 1020.7mb 71f
11:42am 14 15 mph 1020.9mb 71f
11:36am 15 17 mph 1020.9mb 71f
10:54am 13 15 mph 1021.5mb 71f
10:48am 13 15 mph 1021.3mb 71f
10:42am 13 15 mph 1021.5mb 71f
10:36am 14 16 mph 1021.4mb 71f
9:54am 13 15 mph 1021mb 72f
9:48am 14 15 mph 1020.9mb 72f
9:42am 14 16 mph 1020.8mb 72f
9:36am 14 16 mph 1020.9mb 71f
8:54am 13 14 mph 1020.5mb 71f
8:48am 13 15 mph 1020.5mb 71f
8:42am 14 16 mph 1020.4mb 71f
8:36am 13 15 mph 1020.3mb 71f
7:54am 15 16 mph 1019.9mb 71f
7:48am 15 17 mph 1019.7mb 71f
7:42am 15 17 mph 1019.6mb 71f
7:36am 15 18 mph 1019.3mb 71f
6:54am 14 16 mph 1018.8mb 71f
6:48am 14 16 mph 1018.7mb 72f
6:42am 14 17 mph 1018.6mb 71f
6:36am 13 15 mph 1018.7mb 72f
5:54am 13 14 mph 1017.7mb 71f
5:48am 13 15 mph 1017.6mb 71f
5:42am 14 16 mph 1017.5mb 71f
5:36am 13 16 mph 1017.4mb 71f
4:54am 14 17 mph 1016.9mb 72f
4:48am 13 14 mph 1016.9mb 72f
4:42am 13 15 mph 1017mb 72f
4:36am 13 15 mph 1017mb 72f
3:54am 13 15 mph 1016.5mb 72f
3:48am 14 15 mph 1016.4mb 72f
3:42am 13 15 mph 1016.4mb 72f
3:36am 13 15 mph 1016.4mb 72f
2:54am 11 15 mph 1016mb 74f
2:48am 3 9 mph 1016.1mb 74f
2:42am 5 9 mph 1016mb 74f
2:36am 5 7 mph 1016mb 74f
1:54am 11 14 mph 1015.7mb 74f
1:48am 9 11 mph 1015.6mb 74f
1:42am 11 14 mph 1015.7mb 74f
1:36am 10 13 mph 1015.6mb 74f
12:54am 14 16 mph 1015.6mb 74f
12:48am 15 17 mph 1015.7mb 74f
12:42am 14 16 mph 1015.6mb 74f
12:36am 11 14 mph 1015.8mb 74f
12:30am 13 14 mph 1015.8mb 74f
12:24am 13 15 mph 1015.9mb 74f
12:18am 17 21 mph 1016mb 74f
12:12am 14 20 mph 1016.1mb 75f
12:06am 8 11 mph 1015.8mb 75f
12:00am 8 10 mph 1015.6mb 75f
Wed 12/24 11:54pm 10 13 mph 1015.7mb 76f
11:48pm 14 16 mph 1015.9mb 76f
11:42pm 14 16 mph 1015.9mb 74f
11:36pm 16 17 mph 1015.9mb 73f
11:30pm 14 18 mph 1015.8mb 73f
11:24pm 21 30 mph 1015.8mb 73f
11:18pm 13 16 mph 1015.6mb 76f
11:12pm 8 9 mph 1015.6mb 76f
11:06pm 8 10 mph 1015.3mb 76f
11:00pm 7 8 mph 1015.6mb 76f
10:54pm 7 8 mph 1015.6mb 76f
10:48pm 8 10 mph 1015.6mb 75f
10:42pm 8 9 mph 1015.8mb 76f
10:36pm 9 10 mph 1015.5mb 76f
9:54pm 3 6 mph 1015.9mb 76f
9:48pm 7 8 mph 1015.9mb 76f
9:42pm 7 8 mph 1015.7mb 76f
9:36pm 8 9 mph 1015.6mb 76f
8:54pm 7 8 mph 1015.3mb 75f
8:48pm 8 9 mph 1015.3mb 75f
8:42pm 7 8 mph 1015.3mb 76f
8:36pm 7 8 mph 1015.3mb 76f
8:30pm 7 8 mph 1015.1mb 76f
8:24pm 8 9 mph 1015.1mb 76f
8:18pm 8 9 mph 1015.2mb 76f
8:12pm 9 10 mph 1015.3mb 75f
8:06pm 8 9 mph 1015.2mb 75f
8:00pm 7 8 mph 1015.2mb 75f
7:54pm 7 8 mph 1015.1mb 75f
7:48pm 7 8 mph 1015mb 75f
7:42pm 8 9 mph 1014.9mb 75f
7:36pm 7 8 mph 1014.9mb 75f
6:54pm 7 8 mph 1014.3mb 74f
6:48pm 6 8 mph 1014.4mb 74f
5:54pm 5 8 mph 1014mb 74f
5:48pm 6 7 mph 1014mb 74f
5:42pm 6 8 mph 1013.9mb 74f
5:36pm 6 8 mph 1013.9mb 74f
4:54pm 8 10 mph 1014mb 74f
4:48pm 6 9 mph 1013.9mb 75f
4:42pm 2 5 mph 1013.6mb 74f
4:36pm 6 8 mph 1013.7mb 74f
4:30pm 3 7 mph 1013.6mb 74f
4:24pm 3 9 mph 1013.7mb 75f
4:18pm 3 9 mph 1013.9mb 75f
4:12pm 5 14 mph 1013.9mb 75f
4:06pm 2 5 mph 1013.9mb 75f
4:00pm 2 3 mph 1013.9mb 75f
3:54pm 2 6 mph 1013.9mb 75f
3:48pm 2 3 mph 1013.8mb 75f
3:42pm  -  2 mph 1013.5mb 75f
3:36pm 2 7 mph 1013.8mb 76f
2:54pm 3 5 mph 1013.4mb 75f
2:48pm 2 3 mph 1013.4mb 75f
2:42pm 2 3 mph 1013.5mb 75f
2:36pm 2 5 mph 1013.5mb 75f
1:54pm 5 6 mph 1013.5mb 76f
1:48pm 5 6 mph 1013.5mb 76f
1:42pm 6
mph
1013.5mb 76f
1:36pm 7 8 mph 1013.6mb 76f
12:54pm 5 6 mph 1013.9mb 76f
12:48pm 5 6 mph 1013.9mb 76f
12:42pm 3 5 mph 1013.9mb 76f
12:36pm 6 7 mph 1014.1mb 76f
11:54am 7 8 mph 1014.6mb 76f
11:48am 7 8 mph 1014.8mb 76f
11:42am 7 8 mph 1014.7mb 76f
11:36am 6 7 mph 1014.7mb 76f
10:54am 6 7 mph 1015.1mb 76f
10:48am 6 8 mph 1015.1mb 76f
10:42am 6 7 mph 1015.2mb 76f
10:36am 5 6 mph 1015.2mb 76f
9:54am 8 10 mph 1015.2mb 76f
9:48am 8 10 mph 1015.1mb 76f
9:42am 8 9 mph 1015mb 76f
9:36am 8 9 mph 1014.8mb 76f
9:30am 8 9 mph 1014.7mb 76f
9:24am 8 10 mph 1014.6mb 76f
9:18am 7 9 mph 1014.7mb 76f
9:12am 8 9 mph 1014.6mb 75f
9:06am 8 9 mph 1014.5mb 76f
9:00am 9 11 mph 1014.3mb 75f
8:54am 8 10 mph 1014.3mb 75f
8:48am 8 10 mph 1014.3mb 75f
8:42am 9 11 mph 1014.2mb 75f
8:36am 10 11 mph 1014.1mb 75f
7:54am 7 8 mph 1013.9mb 75f
7:48am 8 10 mph 1013.8mb 75f
7:42am 9 10 mph 1013.8mb 74f
7:36am 9 10 mph 1013.7mb 74f
6:54am 7 8 mph 1013.6mb 74f
6:48am 7
mph
1013.5mb 74f
6:42am 8 9 mph 1013.3mb 74f
6:36am 9
mph
1013.3mb 74f
5:54am 10 11 mph 1012.9mb 74f
5:48am 11 13 mph 1012.7mb 74f
5:42am 11 13 mph 1012.7mb 74f
5:36am 13 14 mph 1012.7mb 75f
5:30am 13 14 mph 1012.7mb 75f
5:24am 13 15 mph 1012.6mb 75f
5:18am 14 15 mph 1012.6mb 74f
5:12am 11 14 mph 1012.6mb 74f
5:06am 11 13 mph 1012.6mb 74f
5:00am 10 13 mph 1012.7mb 74f
4:54am 11 13 mph 1012.6mb 74f
4:48am 11 13 mph 1012.6mb 74f
4:42am 11 13 mph 1012.7mb 74f
4:36am 10 11 mph 1012.9mb 74f
3:54am 8 9 mph 1013.2mb 74f
3:48am 8
mph
1013.1mb 74f
3:42am 8 9 mph 1013.2mb 75f
3:36am 8 9 mph 1013.3mb 75f
3:30am 9 11 mph 1013.1mb 75f
3:24am 10 13 mph 1013mb 75f
3:18am 10 13 mph 1013mb 75f
3:12am 11 13 mph 1012.9mb 75f
3:06am 13 16 mph 1012.8mb 75f
3:00am 14 16 mph 1012.8mb 75f
2:54am 14 16 mph 1012.8mb 75f
2:48am 14 16 mph 1012.9mb 75f
2:42am 11 14 mph 1012.9mb 75f
2:36am 11 14 mph 1013mb 75f
2:30am 10 14 mph 1013.2mb 74f
2:24am 9 11 mph 1013.2mb 74f
2:18am 9 10 mph 1013.4mb 74f
2:12am 10 11 mph 1013.5mb 74f
2:06am 9 13 mph 1013.6mb 74f
2:00am 8 9 mph 1013.7mb 74f
1:54am 8 9 mph 1013.8mb 74f
1:48am 8 9 mph 1013.9mb 74f
1:42am 8 9 mph 1013.9mb 75f
1:36am 9 10 mph 1013.9mb 75f
12:54am 7 8 mph 1014mb 75f
12:48am 7 8 mph 1013.9mb 75f
12:42am 9 10 mph 1013.8mb 75f
12:36am 9 10 mph 1013.6mb 75f
Tue 12/23 11:54pm 16 18 mph 1012.9mb 76f
11:48pm 16 18 mph 1012.9mb 76f
11:42pm 15 17 mph 1013mb 76f
11:36pm 16 18 mph 1013.1mb 76f
10:54pm 16 18 mph 1013.6mb 76f
10:48pm 16 18 mph 1013.7mb 76f
10:42pm 16 20 mph 1013.7mb 76f
10:36pm 16 20 mph 1013.6mb 76f
9:54pm 16 20 mph 1013.6mb 76f
9:48pm 15 18 mph 1013.6mb 76f
9:42pm 15 16 mph 1013.5mb 76f
9:36pm 15 16 mph 1013.6mb 76f
8:54pm 13 15 mph 1013.8mb 76f
8:48pm 13 14 mph 1013.9mb 76f
8:42pm 11 14 mph 1013.9mb 76f
8:36pm 11 14 mph 1013.8mb 76f
7:54pm 11 13 mph 1013.9mb 76f
7:48pm 11 13 mph 1013.8mb 76f
7:42pm 10 13 mph 1013.9mb 76f
7:36pm 10 11 mph 1013.9mb 76f
6:54pm 10 11 mph 1013.6mb 76f
6:48pm 10 13 mph 1013.5mb 75f
6:42pm 10
mph
1013.3mb 75f
6:36pm 10 13 mph 1013.2mb 76f
5:54pm 14 15 mph 1012.9mb 76f
5:48pm 14 15 mph 1012.8mb 76f
5:42pm 14 16 mph 1012.7mb 76f
5:36pm 14 16 mph 1012.8mb 76f
4:54pm 13 15 mph 1012.7mb 76f
4:48pm 11 14 mph 1012.9mb 76f
4:42pm 11 13 mph 1013mb 76f